createdAt,value
2023-03-17T00:01:54.676Z,57.94
2023-03-17T00:04:24.290Z,58.05
2023-03-17T00:06:51.785Z,58.05
2023-03-17T00:09:19.379Z,58.25
2023-03-17T00:11:46.489Z,58.27
2023-03-17T00:14:13.620Z,58.09
2023-03-17T00:16:43.810Z,58.15
2023-03-17T00:19:32.246Z,58.36
2023-03-17T00:22:00.964Z,58.53
2023-03-17T00:24:28.511Z,58.67
2023-03-17T00:26:55.390Z,58.54
2023-03-17T00:29:22.106Z,58.35
2023-03-17T00:31:50.762Z,58.26
2023-03-17T00:34:19.262Z,58.48
2023-03-17T00:36:48.449Z,58.46
2023-03-17T00:41:42.744Z,58.67
2023-03-17T00:44:09.893Z,58.83
2023-03-17T00:46:38.251Z,58.76
2023-03-17T00:51:42.813Z,58.70
2023-03-17T00:54:11.013Z,58.63
2023-03-17T00:56:39.232Z,58.72
2023-03-17T00:59:19.290Z,59.05
2023-03-17T01:01:46.944Z,59.01
2023-03-17T01:04:14.302Z,59.30
2023-03-17T01:06:41.024Z,59.13
2023-03-17T01:09:08.309Z,59.09
2023-03-17T01:11:36.620Z,59.31
2023-03-17T01:14:03.533Z,59.24
2023-03-17T01:16:30.262Z,59.47
2023-03-17T01:18:56.974Z,59.59
2023-03-17T01:21:23.841Z,59.20
2023-03-17T01:23:50.474Z,59.47
2023-03-17T01:26:17.461Z,59.59
2023-03-17T01:28:44.114Z,59.98
2023-03-17T01:31:10.860Z,59.92
2023-03-17T01:33:37.494Z,60.04
2023-03-17T01:36:04.388Z,60.05
2023-03-17T01:38:31.318Z,60.00
2023-03-17T01:40:58.230Z,60.07
2023-03-17T01:43:30.817Z,60.23
2023-03-17T01:46:09.832Z,60.29
2023-03-17T01:48:46.978Z,60.27
2023-03-17T01:51:23.620Z,60.36
2023-03-17T01:53:52.894Z,60.46
2023-03-17T01:56:20.344Z,60.53
2023-03-17T01:58:50.646Z,60.56
2023-03-17T02:01:17.944Z,60.83
2023-03-17T02:03:45.233Z,60.72
2023-03-17T02:06:13.033Z,61.05
2023-03-17T02:08:39.695Z,61.06
2023-03-17T02:11:07.052Z,61.16
2023-03-17T02:13:35.022Z,61.33
2023-03-17T02:16:01.777Z,61.38
2023-03-17T02:18:28.421Z,61.49
2023-03-17T02:20:58.699Z,61.79
2023-03-17T02:23:25.816Z,61.82
2023-03-17T02:25:54.148Z,61.89
2023-03-17T02:28:26.065Z,61.92
2023-03-17T02:30:52.861Z,61.99
2023-03-17T02:33:19.610Z,62.00
2023-03-17T02:35:47.868Z,62.23
2023-03-17T02:38:14.564Z,62.25
2023-03-17T02:40:41.189Z,61.91
2023-03-17T02:43:07.941Z,62.41
2023-03-17T02:45:34.589Z,62.32
2023-03-17T02:48:01.490Z,62.61
2023-03-17T02:50:29.581Z,62.51
2023-03-17T02:52:56.320Z,62.68
2023-03-17T02:55:22.959Z,62.84
2023-03-17T02:57:49.644Z,63.03
2023-03-17T03:00:16.604Z,62.98
2023-03-17T03:02:43.356Z,63.08
2023-03-17T03:05:10.842Z,63.13
2023-03-17T03:07:37.544Z,63.30
2023-03-17T03:10:05.825Z,63.25
2023-03-17T03:12:33.081Z,63.44
2023-03-17T03:14:59.690Z,63.29
2023-03-17T03:17:26.389Z,63.57
2023-03-17T03:19:53.009Z,63.62
2023-03-17T03:22:19.645Z,63.40
2023-03-17T03:24:46.242Z,63.68
2023-03-17T03:27:12.878Z,63.81
2023-03-17T03:29:39.548Z,63.61
2023-03-17T03:32:06.649Z,63.89
2023-03-17T03:34:33.299Z,63.85
2023-03-17T03:37:00.035Z,63.89
2023-03-17T03:39:26.695Z,63.85
2023-03-17T03:41:57.383Z,63.89
2023-03-17T03:44:24.566Z,64.05
2023-03-17T03:46:51.896Z,64.12
2023-03-17T03:49:18.746Z,64.24
2023-03-17T03:51:45.361Z,64.03
2023-03-17T03:54:11.997Z,64.27
2023-03-17T03:56:38.624Z,64.55
2023-03-17T03:59:05.296Z,64.51
2023-03-17T04:01:31.946Z,64.44
2023-03-17T04:03:58.560Z,64.66
2023-03-17T04:06:25.206Z,64.84
2023-03-17T04:08:52.317Z,64.73
2023-03-17T04:11:18.962Z,64.75
2023-03-17T04:13:45.881Z,64.67
2023-03-17T04:16:12.550Z,64.98
2023-03-17T04:18:39.285Z,65.10
2023-03-17T04:21:07.130Z,65.11
2023-03-17T04:23:34.136Z,65.00
2023-03-17T04:26:00.991Z,65.33
2023-03-17T04:28:27.764Z,65.23
2023-03-17T04:30:54.446Z,65.43
2023-03-17T04:33:21.512Z,65.48
2023-03-17T04:35:48.358Z,65.48
2023-03-17T04:38:15.016Z,65.55
2023-03-17T04:40:41.733Z,65.54
2023-03-17T04:43:10.311Z,65.71
2023-03-17T04:45:37.534Z,65.71
2023-03-17T04:48:04.697Z,65.87
2023-03-17T04:50:33.397Z,65.92
2023-03-17T04:53:00.298Z,65.80
2023-03-17T04:55:27.648Z,65.90
2023-03-17T04:57:54.328Z,66.02
2023-03-17T05:00:21.415Z,66.11
2023-03-17T05:02:48.039Z,66.19
2023-03-17T05:05:14.636Z,65.96
2023-03-17T05:07:41.774Z,66.19
2023-03-17T05:10:09.456Z,66.18
2023-03-17T05:12:36.173Z,66.24
2023-03-17T05:15:03.165Z,66.20
2023-03-17T05:17:29.838Z,66.23
2023-03-17T05:19:56.488Z,66.41
2023-03-17T05:22:23.107Z,66.22
2023-03-17T05:24:49.765Z,66.40
2023-03-17T05:27:16.399Z,66.60
2023-03-17T05:29:43.075Z,66.22
2023-03-17T05:32:09.802Z,66.41
2023-03-17T05:34:36.525Z,66.50
2023-03-17T05:37:03.450Z,66.73
2023-03-17T05:39:30.244Z,66.65
2023-03-17T05:41:57.300Z,66.78
2023-03-17T05:44:24.051Z,66.77
2023-03-17T05:46:51.132Z,66.57
2023-03-17T05:49:19.174Z,66.71
2023-03-17T05:51:45.791Z,66.59
2023-03-17T05:54:12.973Z,66.65
2023-03-17T05:56:40.378Z,66.72
2023-03-17T05:59:06.988Z,66.77
2023-03-17T06:01:33.597Z,66.63
2023-03-17T06:04:01.772Z,66.84
2023-03-17T06:06:28.862Z,66.77
2023-03-17T06:08:55.618Z,66.31
2023-03-17T06:11:23.611Z,66.74
2023-03-17T06:13:50.428Z,66.97
2023-03-17T06:16:17.203Z,67.09
2023-03-17T06:18:45.404Z,66.70
2023-03-17T06:21:14.909Z,66.62
2023-03-17T06:23:41.525Z,66.77
2023-03-17T06:26:08.755Z,66.36
2023-03-17T06:28:35.842Z,66.62
2023-03-17T06:31:04.174Z,66.25
2023-03-17T06:33:32.724Z,66.24
2023-03-17T06:36:00.663Z,66.32
2023-03-17T06:38:27.918Z,66.32
2023-03-17T06:40:54.552Z,66.10
2023-03-17T06:43:22.256Z,66.36
2023-03-17T06:45:48.863Z,66.00
2023-03-17T06:48:15.500Z,65.74
2023-03-17T06:50:42.130Z,65.89
2023-03-17T06:53:08.875Z,66.11
2023-03-17T06:55:35.750Z,65.90
2023-03-17T06:58:03.207Z,65.87
2023-03-17T07:00:30.452Z,65.67
2023-03-17T07:02:57.796Z,65.77
2023-03-17T07:05:24.493Z,66.27
2023-03-17T07:07:51.152Z,66.01
2023-03-17T07:10:18.217Z,65.86
2023-03-17T07:12:45.285Z,65.66
2023-03-17T07:15:15.355Z,66.20
2023-03-17T07:17:42.162Z,65.85
2023-03-17T07:20:11.703Z,65.90
2023-03-17T07:22:38.385Z,65.79
2023-03-17T07:25:05.587Z,65.72
2023-03-17T07:27:32.326Z,66.06
2023-03-17T07:30:02.270Z,65.91
2023-03-17T07:32:29.560Z,65.86
2023-03-17T07:34:57.166Z,65.54
2023-03-17T07:37:24.921Z,65.78
2023-03-17T07:39:52.040Z,65.40
2023-03-17T07:42:18.724Z,65.73
2023-03-17T07:44:45.581Z,65.63
2023-03-17T07:47:12.394Z,65.50
2023-03-17T07:49:42.043Z,65.28
2023-03-17T07:52:10.652Z,65.46
2023-03-17T07:54:37.795Z,65.74
2023-03-17T07:57:07.986Z,65.51
2023-03-17T07:59:34.742Z,65.37
2023-03-17T08:02:01.718Z,65.08
2023-03-17T08:04:28.889Z,65.65
2023-03-17T08:06:55.843Z,65.61
2023-03-17T08:09:23.147Z,65.63
2023-03-17T08:11:49.887Z,65.39
2023-03-17T08:14:16.632Z,65.71
2023-03-17T08:16:43.334Z,65.27
2023-03-17T08:19:11.147Z,65.35
2023-03-17T08:21:37.850Z,65.25
2023-03-17T08:24:05.370Z,64.98
2023-03-17T08:26:32.362Z,65.02
2023-03-17T08:28:59.562Z,64.99
2023-03-17T08:31:26.321Z,64.89
2023-03-17T08:33:57.150Z,64.67
2023-03-17T08:36:24.633Z,64.46
2023-03-17T08:38:51.625Z,64.59
2023-03-17T08:41:21.998Z,64.54
2023-03-17T08:43:48.862Z,64.30
2023-03-17T08:46:31.498Z,64.42
2023-03-17T08:48:59.324Z,64.23
2023-03-17T08:51:29.213Z,63.90
2023-03-17T08:53:56.416Z,63.91
2023-03-17T08:56:23.402Z,64.30
2023-03-17T08:58:50.984Z,64.29
2023-03-17T09:01:18.347Z,64.43
2023-03-17T09:03:45.660Z,63.95
2023-03-17T09:06:13.637Z,64.05
2023-03-17T09:08:45.135Z,64.16
2023-03-17T09:11:16.759Z,63.84
2023-03-17T09:13:44.857Z,63.91
2023-03-17T09:16:11.553Z,63.82
2023-03-17T09:18:38.927Z,64.12
2023-03-17T09:21:06.454Z,64.07
2023-03-17T09:23:33.727Z,64.16
2023-03-17T09:26:01.984Z,64.03
2023-03-17T09:28:29.251Z,63.98
2023-03-17T09:31:04.369Z,64.11
2023-03-17T09:33:31.759Z,64.02
2023-03-17T09:35:58.442Z,63.96
2023-03-17T09:38:27.649Z,63.88
2023-03-17T09:41:06.700Z,63.92
2023-03-17T09:43:43.353Z,63.83
2023-03-17T09:46:30.831Z,63.95
2023-03-17T09:49:07.718Z,63.60
2023-03-17T09:51:35.954Z,63.62
2023-03-17T09:54:06.735Z,63.52
2023-03-17T09:56:36.960Z,63.86
2023-03-17T09:59:08.705Z,63.65
2023-03-17T10:01:43.753Z,62.93
2023-03-17T10:04:12.098Z,62.56
2023-03-17T10:06:49.639Z,62.45
2023-03-17T10:09:40.260Z,62.19
2023-03-17T10:12:18.410Z,62.31
2023-03-17T10:15:13.080Z,62.25
2023-03-17T10:17:42.223Z,62.18
2023-03-17T10:20:33.959Z,61.74
2023-03-17T10:23:06.944Z,61.73
2023-03-17T10:25:37.474Z,61.12
2023-03-17T10:28:17.785Z,60.95
2023-03-17T10:30:44.896Z,60.45
2023-03-17T10:33:12.563Z,60.55
2023-03-17T10:35:39.622Z,60.46
2023-03-17T10:38:21.581Z,60.25
2023-03-17T10:40:59.517Z,60.28
2023-03-17T10:43:41.931Z,60.16
2023-03-17T10:46:20.194Z,60.21
2023-03-17T10:48:52.980Z,60.31
2023-03-17T10:51:31.747Z,60.53
2023-03-17T10:54:08.130Z,60.55
2023-03-17T10:56:37.147Z,60.75
2023-03-17T10:59:14.967Z,60.55
2023-03-17T11:01:49.886Z,60.54
2023-03-17T11:04:37.461Z,60.38
2023-03-17T11:07:16.589Z,60.41
2023-03-17T11:09:43.573Z,60.46
2023-03-17T11:12:26.894Z,60.44
2023-03-17T11:15:06.509Z,60.52
2023-03-17T11:17:45.513Z,60.46
2023-03-17T11:20:50.976Z,60.53
2023-03-17T11:23:38.758Z,60.47
2023-03-17T11:26:14.777Z,60.46
2023-03-17T11:28:46.771Z,60.35
2023-03-17T11:31:34.187Z,60.47
2023-03-17T11:34:29.847Z,60.82
2023-03-17T11:37:30.210Z,60.57
2023-03-17T11:40:06.152Z,60.55
2023-03-17T11:42:44.384Z,60.55
2023-03-17T11:45:22.723Z,60.46
2023-03-17T11:48:20.062Z,60.54
2023-03-17T11:51:02.113Z,60.49
2023-03-17T11:53:43.136Z,60.65
2023-03-17T11:56:37.680Z,60.75
2023-03-17T11:59:12.022Z,60.69
2023-03-17T12:01:51.250Z,60.63
2023-03-17T12:04:35.248Z,60.58
2023-03-17T12:07:08.104Z,60.45
2023-03-17T12:09:47.654Z,60.73
2023-03-17T12:12:19.890Z,60.66
2023-03-17T12:14:53.342Z,60.37
2023-03-17T12:17:50.874Z,60.55
2023-03-17T12:20:30.033Z,60.29
2023-03-17T12:23:18.985Z,60.42
2023-03-17T12:25:57.867Z,60.19
2023-03-17T12:28:34.276Z,59.88
2023-03-17T12:31:17.305Z,59.72
2023-03-17T12:33:55.224Z,59.68
2023-03-17T12:36:22.685Z,59.73
2023-03-17T12:39:06.127Z,59.14
2023-03-17T12:41:59.828Z,59.18
2023-03-17T12:44:52.524Z,59.32
2023-03-17T12:47:41.067Z,58.79
2023-03-17T12:50:28.001Z,58.77
2023-03-17T12:53:26.893Z,58.51
2023-03-17T12:55:56.843Z,58.72
2023-03-17T12:58:35.940Z,58.53
2023-03-17T13:01:17.581Z,58.65
2023-03-17T13:04:16.901Z,58.75
2023-03-17T13:06:53.321Z,58.37
2023-03-17T13:09:32.048Z,57.91
2023-03-17T13:12:03.403Z,57.69
2023-03-17T13:14:47.789Z,57.92
2023-03-17T13:17:20.415Z,57.70
2023-03-17T13:20:10.391Z,58.32
2023-03-17T13:22:38.837Z,58.37
2023-03-17T13:25:27.540Z,58.08
2023-03-17T13:27:54.366Z,58.26
2023-03-17T13:30:25.845Z,58.55
2023-03-17T13:33:10.511Z,58.09
2023-03-17T13:35:45.465Z,58.20
2023-03-17T13:38:28.764Z,58.46
2023-03-17T13:41:07.130Z,58.49
2023-03-17T13:43:36.594Z,58.39
2023-03-17T13:46:41.796Z,58.41
2023-03-17T13:49:21.449Z,58.23
2023-03-17T13:52:01.662Z,58.46
2023-03-17T13:54:28.365Z,58.45
2023-03-17T13:56:59.367Z,58.40
2023-03-17T13:59:48.104Z,58.41
2023-03-17T14:02:21.527Z,58.34
2023-03-17T14:04:58.809Z,58.38
2023-03-17T14:07:37.240Z,58.34
2023-03-17T14:10:05.497Z,58.43
2023-03-17T14:12:58.129Z,58.78
2023-03-17T14:15:48.235Z,58.13
2023-03-17T14:18:21.322Z,58.25
2023-03-17T14:20:56.285Z,58.48
2023-03-17T14:23:24.134Z,58.40
2023-03-17T14:25:51.162Z,57.90
2023-03-17T14:28:26.441Z,58.33
2023-03-17T14:31:01.949Z,58.10
2023-03-17T14:33:31.097Z,58.32
2023-03-17T14:36:00.915Z,57.92
2023-03-17T14:38:33.117Z,58.49
2023-03-17T14:41:05.699Z,58.33
2023-03-17T14:43:34.581Z,58.36
2023-03-17T14:46:21.474Z,58.43
2023-03-17T14:48:52.149Z,58.40
2023-03-17T14:51:30.479Z,58.52
2023-03-17T14:54:01.375Z,58.63
2023-03-17T14:56:42.370Z,58.59
2023-03-17T14:59:36.321Z,58.53
2023-03-17T15:02:23.300Z,58.57
2023-03-17T15:04:59.511Z,58.50
2023-03-17T15:07:35.657Z,58.62
2023-03-17T15:10:03.679Z,58.83
2023-03-17T15:12:31.390Z,58.94
2023-03-17T15:15:06.337Z,58.87
2023-03-17T15:17:37.146Z,58.95
2023-03-17T15:20:07.602Z,59.09
2023-03-17T15:22:48.515Z,58.98
2023-03-17T15:25:23.910Z,59.08
2023-03-17T15:27:50.926Z,59.13
2023-03-17T15:30:18.882Z,59.08
2023-03-17T15:32:51.898Z,59.39
2023-03-17T15:35:18.817Z,59.27
2023-03-17T15:37:45.643Z,59.55
2023-03-17T15:40:13.893Z,59.34
2023-03-17T15:42:40.568Z,59.56
2023-03-17T15:45:08.523Z,59.80
2023-03-17T15:47:39.855Z,59.93
2023-03-17T15:50:24.206Z,59.99
2023-03-17T15:52:56.281Z,60.10
2023-03-17T15:55:32.464Z,60.20
2023-03-17T15:57:59.169Z,60.15
2023-03-17T16:00:29.828Z,60.18
2023-03-17T16:03:02.148Z,60.67
2023-03-17T16:05:33.952Z,60.67
2023-03-17T16:08:01.704Z,60.89
2023-03-17T16:10:31.072Z,60.85
2023-03-17T16:12:58.333Z,61.02
2023-03-17T16:15:28.252Z,61.16
2023-03-17T16:17:59.262Z,61.14
2023-03-17T16:20:50.184Z,61.27
2023-03-17T16:23:19.389Z,61.41
2023-03-17T16:25:46.882Z,61.61
2023-03-17T16:28:28.376Z,61.59
2023-03-17T16:30:57.180Z,62.00
2023-03-17T16:33:25.972Z,62.18
2023-03-17T16:35:54.626Z,62.33
2023-03-17T16:38:26.731Z,62.54
2023-03-17T16:41:06.157Z,62.22
2023-03-17T16:43:37.768Z,62.50
2023-03-17T16:46:06.936Z,62.28
2023-03-17T16:48:33.743Z,62.71
2023-03-17T16:51:01.472Z,63.00
2023-03-17T16:53:28.175Z,63.13
2023-03-17T16:55:55.714Z,63.48
2023-03-17T16:58:25.973Z,63.32
2023-03-17T17:00:55.563Z,63.50
2023-03-17T17:03:22.604Z,63.42
2023-03-17T17:05:49.273Z,63.52
2023-03-17T17:08:15.997Z,63.89
2023-03-17T17:10:42.688Z,63.94
2023-03-17T17:13:12.210Z,64.22
2023-03-17T17:15:41.778Z,64.15
2023-03-17T17:18:15.532Z,64.43
2023-03-17T17:20:43.178Z,64.35
2023-03-17T17:23:18.987Z,64.50
2023-03-17T17:25:46.396Z,64.75
2023-03-17T17:28:15.338Z,64.84
2023-03-17T17:30:45.242Z,64.99
2023-03-17T17:33:12.391Z,65.07
2023-03-17T17:35:39.261Z,65.29
2023-03-17T17:38:15.814Z,65.57
2023-03-17T17:40:42.417Z,65.45
2023-03-17T17:43:09.933Z,65.74
2023-03-17T17:45:36.956Z,65.89
2023-03-17T17:48:04.066Z,65.84
2023-03-17T17:50:31.391Z,65.85
2023-03-17T17:53:04.920Z,65.95
2023-03-17T17:55:33.745Z,65.97
2023-03-17T17:58:00.917Z,66.16
2023-03-17T18:00:27.951Z,66.49
2023-03-17T18:02:54.660Z,66.37
2023-03-17T18:05:21.588Z,66.70
2023-03-17T18:07:48.326Z,66.34
2023-03-17T18:10:19.543Z,66.79
2023-03-17T18:12:46.716Z,66.67
2023-03-17T18:15:13.584Z,66.76
2023-03-17T18:17:40.689Z,66.76
2023-03-17T18:20:08.886Z,67.06
2023-03-17T18:22:36.056Z,67.27
2023-03-17T18:25:02.668Z,67.09
2023-03-17T18:27:29.331Z,67.63
2023-03-17T18:29:57.733Z,67.33
2023-03-17T18:32:25.974Z,67.25
2023-03-17T18:34:52.818Z,67.24
2023-03-17T18:37:19.453Z,67.50
2023-03-17T18:39:55.506Z,67.64
2023-03-17T18:42:32.468Z,67.35
2023-03-17T18:44:59.120Z,67.62
2023-03-17T18:47:25.820Z,67.70
2023-03-17T18:49:52.526Z,67.90
2023-03-17T18:52:19.175Z,67.90
2023-03-17T18:54:46.064Z,67.58
2023-03-17T18:57:12.679Z,67.95
2023-03-17T18:59:39.791Z,67.84
2023-03-17T19:02:07.259Z,67.90
2023-03-17T19:04:34.409Z,67.97
2023-03-17T19:07:01.473Z,67.92
2023-03-17T19:09:28.233Z,68.17
2023-03-17T19:11:54.873Z,68.23
2023-03-17T19:14:22.085Z,68.03
2023-03-17T19:16:49.230Z,68.30
2023-03-17T19:19:15.869Z,68.75
2023-03-17T19:21:42.508Z,68.62
2023-03-17T19:24:11.815Z,68.65
2023-03-17T19:26:38.870Z,68.52
2023-03-17T19:29:06.646Z,68.41
2023-03-17T19:31:33.276Z,68.63
2023-03-17T19:33:59.968Z,68.55
2023-03-17T19:36:26.609Z,68.74
2023-03-17T19:38:53.300Z,68.49
2023-03-17T19:41:19.925Z,68.68
2023-03-17T19:43:46.610Z,68.79
2023-03-17T19:46:13.307Z,68.64
2023-03-17T19:48:40.669Z,68.68
2023-03-17T19:51:08.104Z,69.04
2023-03-17T19:53:35.156Z,68.78
2023-03-17T19:56:01.857Z,69.02
2023-03-17T19:58:28.549Z,68.93
2023-03-17T20:00:55.412Z,68.87
2023-03-17T20:03:25.572Z,68.90
2023-03-17T20:05:53.058Z,68.93
2023-03-17T20:08:19.952Z,69.16
2023-03-17T20:10:53.927Z,69.06
2023-03-17T20:13:22.531Z,68.98
2023-03-17T20:15:50.196Z,68.92
2023-03-17T20:18:18.735Z,69.21
2023-03-17T20:20:49.509Z,69.13
2023-03-17T20:23:16.890Z,68.93
2023-03-17T20:25:44.110Z,69.01
2023-03-17T20:28:11.653Z,68.93
2023-03-17T20:30:39.601Z,68.72
2023-03-17T20:33:08.280Z,68.76
2023-03-17T20:35:35.512Z,69.11
2023-03-17T20:38:02.778Z,68.90
2023-03-17T20:40:29.661Z,68.99
2023-03-17T20:42:56.544Z,68.95
2023-03-17T20:45:23.237Z,69.05
2023-03-17T20:47:50.135Z,69.00
2023-03-17T20:50:16.920Z,69.03
2023-03-17T20:52:44.028Z,68.77
2023-03-17T20:55:15.012Z,68.90
2023-03-17T20:57:43.168Z,68.74
2023-03-17T21:00:16.320Z,68.81
2023-03-17T21:02:42.944Z,68.65
2023-03-17T21:05:23.163Z,68.58
2023-03-17T21:07:50.659Z,68.93
2023-03-17T21:10:18.452Z,69.05
2023-03-17T21:12:45.802Z,69.07
2023-03-17T21:15:14.023Z,68.86
2023-03-17T21:17:42.345Z,68.99
2023-03-17T21:20:11.504Z,68.76
2023-03-17T21:22:39.960Z,68.65
2023-03-17T21:25:08.787Z,68.88
2023-03-17T21:27:39.738Z,68.74
2023-03-17T21:30:11.178Z,68.86
2023-03-17T21:32:38.950Z,68.84
2023-03-17T21:35:06.631Z,69.01
2023-03-17T21:37:33.461Z,68.88
2023-03-17T21:40:00.284Z,68.73
2023-03-17T21:42:27.806Z,68.98
2023-03-17T21:44:54.486Z,69.07
2023-03-17T21:47:21.220Z,68.91
2023-03-17T21:49:47.844Z,68.70
2023-03-17T21:52:15.129Z,68.77
2023-03-17T21:54:42.338Z,68.78
2023-03-17T21:57:09.332Z,68.95
2023-03-17T21:59:36.298Z,68.76
2023-03-17T22:02:03.665Z,68.51
2023-03-17T22:04:30.387Z,68.85
2023-03-17T22:06:58.862Z,68.69
2023-03-17T22:09:25.938Z,68.46
2023-03-17T22:11:52.642Z,68.35
2023-03-17T22:14:20.747Z,68.84
2023-03-17T22:16:50.460Z,68.36
2023-03-17T22:19:19.312Z,68.42
2023-03-17T22:21:47.285Z,68.73
2023-03-17T22:24:13.884Z,68.64
2023-03-17T22:26:40.533Z,68.14
2023-03-17T22:29:07.189Z,68.06
2023-03-17T22:31:37.117Z,67.93
2023-03-17T22:34:04.356Z,67.93
2023-03-17T22:36:31.302Z,68.18
2023-03-17T22:38:58.642Z,67.93
2023-03-17T22:41:28.425Z,67.71
2023-03-17T22:43:55.391Z,67.95
2023-03-17T22:46:22.516Z,67.77
2023-03-17T22:48:49.948Z,67.63
2023-03-17T22:51:20.046Z,67.87
2023-03-17T22:53:47.249Z,67.50
2023-03-17T22:56:15.794Z,67.84
2023-03-17T22:58:43.380Z,67.11
2023-03-17T23:01:12.356Z,67.05
2023-03-17T23:03:39.725Z,67.15
2023-03-17T23:06:07.845Z,67.46
2023-03-17T23:08:36.159Z,67.40
2023-03-17T23:11:07.398Z,67.25
2023-03-17T23:13:35.351Z,67.62
2023-03-17T23:16:02.953Z,67.26
2023-03-17T23:18:29.629Z,67.13
2023-03-17T23:20:56.533Z,67.13
2023-03-17T23:23:23.375Z,67.07
2023-03-17T23:25:50.142Z,67.04
2023-03-17T23:28:16.798Z,67.53
2023-03-17T23:30:44.023Z,67.23
2023-03-17T23:33:10.806Z,67.56
2023-03-17T23:35:38.111Z,67.35
2023-03-17T23:38:04.780Z,67.43
2023-03-17T23:40:32.628Z,67.14
2023-03-17T23:42:59.867Z,67.65
2023-03-17T23:45:26.597Z,67.70
2023-03-17T23:47:55.615Z,67.52
2023-03-17T23:50:22.274Z,67.70
2023-03-17T23:52:49.386Z,67.38
2023-03-17T23:55:16.890Z,67.58
2023-03-17T23:57:44.336Z,67.52
